YCBG weather

Hobart Cambridge Airport
Tasmania, Australia

Public forecast

Using degrees Celsius for public forecast. Weather courtesy of forecast.io.

METAR (pilot weather report)

Closest report is Hobart International Airport, 1.6 nm (3.0 km) ESE. Retrieved 2018/05/21 22:00 UTC (6 minutes ago):

YMHB 212200Z 28006KT 240V330 9999 FEW042 BKN054 12/02 Q1011

TAF (pilot weather forecast)

Forecast is more than 12 hours old.

Closest forecast is Hobart International Airport, 1.6 nm (3.0 km) ESE. Retrieved 2018/05/21 06:36 UTC (15 hours ago):

TAF YMHB 210527Z 2106/2206 30018KT 9999 SCT045 FM210800 28015G25KT 9999 -SHRA FEW025 SCT035 FM211200 26020G42KT 9999 -SHRA FEW025 SCT035 FM211700 22015G25KT 9999 SCT025